Maple Falls, WA

10:31 AM PST on January 25, 2015 (GMT -0800)
Silver Lake Rd (2) | Change Station
CLOSE
Current Station
Personal Weather Station
Location: Maple Falls, WA
Elevation: 670 ft
Nearby Weather Stations

Elev 670 ft 48.92 °N, 122.09 °W | Updated 22 seconds ago

Overcast
Overcast
44.9 °F
Feels Like 45 °F
N
0.0
Wind Variable Wind from NW
Gusts 1.0 mph

Today
High -- | Low -- °F
--% Chance of Precip.
Yesterday
High -- | Low -- °F
Precip. -- in
7:47 AM 4:54 PM
Waxing Crescent, 34% visible
Pressure 30.19 in
Visibility 0.5 miles
Clouds Overcast 200 ft
Windchill 45 °F
Dew Point 45 °F
Humidity 100%
Rainfall 0.00 in
Snow Depth Not available.
UV 0 out of 12
Pollen 3.90 out of 12
Air Quality Not available.
Flu Activity Not available.
METAR KBLI 251753Z 06004KT 1/2SM R16/5500VP6000FT FG OVC002 12/11 A3017 RMK AO2 SLP222 T01170106 10117 20100 53001 $

More Conditions Fewer Conditions

Pressure 30.19 in
Visibility 0.5 miles
Clouds Overcast 200 ft
Windchill 45 °F
Dew Point 45 °F
Humidity 100%
Rainfall 0.00 in
Snow Depth Not available.
UV 0 out of 12
Pollen 3.90 out of 12
Air Quality Not available.
Flu Activity Not available.
METAR KBLI 251753Z 06004KT 1/2SM R16/5500VP6000FT FG OVC002 12/11 A3017 RMK AO2 SLP222 T01170106 10117 20100 53001 $

More Conditions Fewer Conditions

10-Day Weather Forecast

Almanac

Astronomy

Jan. 25, 2015 Rise Set
Actual Time
Civil Twilight
Nautical Twilight
Astronomical Twilight
Moon
Length of Visible Light
Length of Day
Tomorrow will be .
, % of the Moon is Illuminated

Today's Extremes

State Highs State Lows

Community

WunderPhotos

Upload Photos

1,790,015 photos uploaded!

WunderBlogs® & News

Nearby

Air Quality

  Air Quality AQ Index Pollutant
Not available.

Snow Depth

Station Depth Elevation

Earthquake Activity

City Distance Mag. Time & Date
Minimum magnitude displayed is 2.5.

Coastal Water Temperatures

Place Temperature

Nearby Weather Stations